Time;durP1;ratioP1;P1;durP2;ratioP2;P2;SDS_P1;SDS_P2;PMS_P1;PMS_P2;Temp;Humidity;BMP_temperature;BMP_pressure;BME280_temperature;BME280_humidity;BME280_pressure;Samples;Min_cycle;Max_cycle;Signal;HPM_P1;HPM_P2
2022/06/26 00:02:42;;;;;;;12.93;8.95;;;;;;;21.11;82.84;99985.64;2891577;81;21035;-93
2022/06/26 00:06:43;;;;;;;10.60;9.50;;;;;;;21.05;82.83;99987.81;2877224;80;21054;-95
2022/06/26 00:10:46;;;;;;;12.95;11.63;;;;;;;21.00;83.01;99985.70;2886813;80;21073;-95
2022/06/26 00:14:47;;;;;;;16.20;11.55;;;;;;;20.93;83.70;99996.98;2897151;80;21051;-94
2022/06/26 00:18:49;;;;;;;14.33;12.68;;;;;;;20.86;84.28;99991.58;2896773;80;21023;-94
2022/06/26 00:22:51;;;;;;;12.00;10.72;;;;;;;20.81;83.37;99989.47;2884114;80;21062;-95
2022/06/26 00:26:53;;;;;;;13.93;12.45;;;;;;;20.81;82.65;99992.67;2897489;80;21059;-94
2022/06/26 00:30:54;;;;;;;14.55;13.05;;;;;;;20.76;83.78;99992.42;2880904;78;21124;-94
2022/06/26 00:34:59;;;;;;;13.68;12.35;;;;;;;20.75;85.22;99995.66;2900045;80;21154;-93
2022/06/26 00:39:00;;;;;;;14.23;12.82;;;;;;;20.62;85.97;100000.98;2869222;80;21022;-95
2022/06/26 00:43:02;;;;;;;15.25;11.88;;;;;;;20.57;85.20;100000.75;2919000;79;21129;-95
2022/06/26 00:47:04;;;;;;;18.00;11.88;;;;;;;20.59;84.79;99998.68;2895536;80;21082;-95
2022/06/26 00:51:07;;;;;;;12.18;10.98;;;;;;;20.57;85.19;100003.45;2880060;79;21020;-94
2022/06/26 00:55:10;;;;;;;14.65;13.22;;;;;;;20.58;85.11;100003.23;2889106;80;21546;-94
2022/06/26 00:59:12;;;;;;;35.48;16.32;;;;;;;20.51;83.52;100006.42;2938478;78;21130;-93
2022/06/26 01:03:13;;;;;;;15.70;13.03;;;;;;;20.45;83.82;100020.20;2902661;78;21042;-95
2022/06/26 01:07:15;;;;;;;13.53;12.15;;;;;;;20.36;83.31;100019.52;2890265;80;21018;-95
2022/06/26 01:11:20;;;;;;;14.07;12.58;;;;;;;20.22;83.75;100004.23;2890099;80;21030;-91
2022/06/26 01:15:22;;;;;;;12.20;11.03;;;;;;;20.24;83.64;100012.97;2883554;80;21464;-94
2022/06/26 01:19:27;;;;;;;13.00;11.55;;;;;;;20.16;83.14;100010.44;2871847;80;21070;-94
2022/06/26 01:23:29;;;;;;;14.30;10.83;;;;;;;20.12;83.48;100016.23;2895311;80;21554;-91
2022/06/26 01:27:42;;;;;;;13.80;11.22;;;;;;;20.11;84.06;100014.56;2794679;81;21209;-93
2022/06/26 01:31:44;;;;;;;11.22;9.33;;;;;;;20.09;84.40;100017.97;2909082;79;21126;-94
2022/06/26 01:35:46;;;;;;;10.72;9.73;;;;;;;20.04;84.94;100020.40;2918571;79;21164;-95
2022/06/26 01:39:47;;;;;;;12.58;11.25;;;;;;;20.04;85.27;100021.75;2896324;79;21109;-93
2022/06/26 01:44:00;;;;;;;14.93;11.70;;;;;;;20.07;84.70;100028.64;2873586;80;21155;-96
2022/06/26 01:48:01;;;;;;;10.40;9.15;;;;;;;20.01;84.43;100022.14;2881127;80;21002;-95
2022/06/26 01:52:04;;;;;;;11.10;9.83;;;;;;;19.95;84.11;100028.33;2922340;79;21085;-95
2022/06/26 01:56:06;;;;;;;10.03;9.03;;;;;;;19.93;84.11;100024.46;2933107;79;20988;-94
2022/06/26 02:00:08;;;;;;;13.18;10.35;;;;;;;19.92;83.90;100025.49;2937510;79;20999;-96
2022/06/26 02:04:15;;;;;;;10.72;8.68;;;;;;;19.68;83.64;100025.36;2892434;80;21063;-95
2022/06/26 02:08:13;;;;;;;13.00;11.60;;;;;;;19.45;84.16;100028.22;2892647;80;21070;-96
2022/06/26 02:16:42;;;;;;;12.13;10.93;;;;;;;19.38;83.86;100033.53;2890763;80;21019;-95
2022/06/26 02:20:44;;;;;;;13.22;11.83;;;;;;;19.38;83.95;100030.34;2894935;80;21063;-96
2022/06/26 02:24:46;;;;;;;13.08;11.78;;;;;;;19.39;84.14;100029.81;2863963;80;21015;-95
2022/06/26 02:28:48;;;;;;;13.30;11.33;;;;;;;19.41;85.03;100030.45;2865228;80;21032;-95
2022/06/26 02:32:50;;;;;;;19.20;10.32;;;;;;;19.36;86.00;100019.41;2932521;79;21047;-95
2022/06/26 02:36:52;;;;;;;13.22;10.43;;;;;;;19.41;86.20;100025.91;2896784;80;21026;-94
2022/06/26 02:40:55;;;;;;;12.03;10.90;;;;;;;19.46;86.03;100034.79;2886997;79;21049;-95
2022/06/26 02:44:57;;;;;;;14.53;12.78;;;;;;;19.43;84.02;100039.19;2910394;79;21010;-94
2022/06/26 02:48:59;;;;;;;11.50;10.40;;;;;;;19.37;83.93;100039.95;2885925;80;21061;-93
2022/06/26 02:53:00;;;;;;;8.18;7.37;;;;;;;19.37;83.89;100052.09;2910916;78;21128;-94
2022/06/26 02:57:09;;;;;;;9.60;8.58;;;;;;;19.30;83.97;100049.84;2894227;79;21949;-96
2022/06/26 03:01:12;;;;;;;10.18;9.18;;;;;;;19.13;85.30;100043.31;2890670;80;21063;-95
2022/06/26 03:05:13;;;;;;;10.95;9.85;;;;;;;19.19;84.98;100054.68;2904328;79;20995;-94
2022/06/26 03:09:15;;;;;;;14.47;12.60;;;;;;;19.21;85.52;100059.37;2862459;80;21053;-94
2022/06/26 03:13:17;;;;;;;14.00;11.70;;;;;;;19.29;85.95;100065.70;2911240;79;21103;-94
2022/06/26 03:17:19;;;;;;;13.38;11.95;;;;;;;19.38;86.12;100058.66;2887239;81;21049;-95
2022/06/26 03:21:21;;;;;;;14.07;12.63;;;;;;;19.34;88.01;100060.03;2888896;80;21042;-95
2022/06/26 03:25:22;;;;;;;13.95;12.07;;;;;;;19.25;89.39;100066.05;2897478;81;21039;-95
2022/06/26 03:29:24;;;;;;;21.07;12.50;;;;;;;19.24;89.16;100057.64;2883897;80;21596;-96
2022/06/26 03:33:26;;;;;;;20.48;14.13;;;;;;;19.31;89.59;100069.86;2883906;81;21004;-95
2022/06/26 03:37:43;;;;;;;17.02;12.33;;;;;;;19.35;92.69;100068.98;2893741;80;20999;-96
2022/06/26 03:41:57;;;;;;;16.30;11.80;;;;;;;19.40;91.37;100064.70;2889412;80;21054;-96
2022/06/26 03:45:48;;;;;;;16.77;13.88;;;;;;;19.40;91.04;100060.65;2870096;79;21032;-96
2022/06/26 03:50:14;;;;;;;15.98;12.95;;;;;;;19.63;91.99;100062.84;2932552;79;21095;-95
2022/06/26 03:54:15;;;;;;;17.05;15.15;;;;;;;19.82;91.04;100064.92;2943497;79;21028;-96
2022/06/26 03:58:17;;;;;;;13.53;12.23;;;;;;;19.89;93.27;100053.38;2839048;80;21038;-92
2022/06/26 04:02:19;;;;;;;27.50;16.75;;;;;;;19.91;95.93;100059.41;2859029;80;21058;-94
2022/06/26 04:06:25;;;;;;;29.95;16.52;;;;;;;19.98;95.74;100061.18;2770991;83;21039;-95
2022/06/26 04:10:27;;;;;;;24.65;15.88;;;;;;;20.10;95.76;100064.19;2832223;81;21064;-93
2022/06/26 04:14:29;;;;;;;19.17;14.20;;;;;;;20.11;96.26;100063.66;2835549;81;21080;-94
2022/06/26 04:18:31;;;;;;;21.48;15.28;;;;;;;20.34;96.27;100072.05;2812803;81;21045;-94
2022/06/26 04:22:35;;;;;;;18.10;16.27;;;;;;;20.71;97.02;100075.97;2848008;81;21042;-94
2022/06/26 04:26:37;;;;;;;19.92;14.80;;;;;;;21.48;95.17;100078.66;2806743;82;21062;-95
2022/06/26 04:30:39;;;;;;;23.25;17.52;;;;;;;22.48;90.65;100079.91;2720124;83;21051;-92
2022/06/26 04:34:41;;;;;;;16.12;14.55;;;;;;;23.14;85.06;100078.08;2833829;82;21075;-94
2022/06/26 04:38:43;;;;;;;20.15;13.88;;;;;;;23.84;82.33;100078.41;2847529;82;21011;-92
2022/06/26 04:42:45;;;;;;;18.55;12.90;;;;;;;24.44;78.95;100085.29;2823261;82;21233;-95
2022/06/26 04:46:47;;;;;;;17.77;11.80;;;;;;;24.73;77.83;100093.79;2848096;81;21059;-95
2022/06/26 04:50:48;;;;;;;16.07;14.38;;;;;;;25.09;76.52;100100.34;2814671;82;21031;-94
2022/06/26 04:54:50;;;;;;;15.88;13.93;;;;;;;25.32;75.28;100098.30;2864096;81;21132;-95
2022/06/26 04:58:53;;;;;;;16.85;13.88;;;;;;;25.56;75.58;100107.16;2846098;82;21402;-95
2022/06/26 05:02:55;;;;;;;16.37;11.73;;;;;;;26.12;72.67;100094.70;2841774;82;21360;-95
2022/06/26 05:11:13;;;;;;;17.15;10.95;;;;;;;26.58;71.29;100113.59;2852650;81;21138;-65
2022/06/26 05:15:15;;;;;;;10.75;9.65;;;;;;;26.99;70.91;100104.70;2831892;82;21078;-67
2022/06/26 05:19:18;;;;;;;16.00;11.15;;;;;;;27.49;69.53;100104.08;2799774;82;21019;-64
2022/06/26 05:23:32;;;;;;;13.25;10.85;;;;;;;27.61;68.29;100107.34;2882262;80;21023;-64
2022/06/26 05:27:33;;;;;;;13.10;10.30;;;;;;;27.85;68.18;100107.23;2803028;82;21007;-65
2022/06/26 05:31:48;;;;;;;13.05;10.25;;;;;;;28.04;66.95;100114.13;2865737;81;21060;-66
2022/06/26 05:35:50;;;;;;;11.88;10.68;;;;;;;28.25;66.22;100119.98;2807652;79;68966;-95
2022/06/26 05:39:51;;;;;;;14.70;10.05;;;;;;;28.47;66.02;100117.86;2830991;82;21056;-96
2022/06/26 05:43:53;;;;;;;11.97;10.13;;;;;;;28.61;65.97;100121.92;2915955;80;20997;-95
2022/06/26 05:47:54;;;;;;;13.60;10.90;;;;;;;28.82;65.53;100124.98;2915264;79;21021;-95
2022/06/26 05:52:16;;;;;;;11.10;9.50;;;;;;;29.09;63.58;100125.64;2910679;78;20976;-96
2022/06/26 05:56:18;;;;;;;10.82;9.78;;;;;;;29.35;62.80;100124.59;2912530;79;21001;-91
2022/06/26 06:00:19;;;;;;;8.93;8.10;;;;;;;29.90;62.17;100133.71;2894769;80;20977;-92
2022/06/26 06:04:21;;;;;;;19.52;9.35;;;;;;;30.34;60.41;100134.67;2942631;78;21027;-95
2022/06/26 06:08:22;;;;;;;9.53;8.60;;;;;;;30.82;60.51;100133.39;2930508;79;21356;-95
2022/06/26 06:12:24;;;;;;;10.32;9.10;;;;;;;31.26;58.02;100139.14;2914076;79;21408;-94
2022/06/26 06:16:26;;;;;;;8.88;8.00;;;;;;;31.56;57.53;100135.41;2937072;80;21023;-95
2022/06/26 06:20:27;;;;;;;10.80;9.80;;;;;;;31.96;56.63;100132.48;2942299;80;21530;-94
2022/06/26 06:24:29;;;;;;;12.90;8.75;;;;;;;32.39;55.46;100137.77;2926090;80;21023;-95
2022/06/26 06:28:30;;;;;;;9.98;9.08;;;;;;;32.52;54.55;100132.78;2940896;80;21004;-95
2022/06/26 06:32:32;;;;;;;10.32;9.43;;;;;;;32.74;54.59;100133.86;2920846;80;21369;-94
2022/06/26 06:36:34;;;;;;;9.00;8.20;;;;;;;32.89;54.79;100131.11;2938769;80;21064;-92
2022/06/26 06:40:35;;;;;;;15.68;8.98;;;;;;;33.01;54.30;100134.09;2895066;78;20996;-94
2022/06/26 06:44:37;;;;;;;8.23;7.53;;;;;;;33.14;53.31;100132.13;2891533;80;21491;-94
2022/06/26 06:48:38;;;;;;;9.05;7.42;;;;;;;33.21;52.79;100129.61;2885313;80;21012;-94
2022/06/26 06:52:40;;;;;;;7.87;7.17;;;;;;;33.32;53.44;100133.98;2900456;80;21083;-96
2022/06/26 06:56:42;;;;;;;7.92;7.22;;;;;;;33.47;52.96;100137.23;2809528;82;21550;-95
2022/06/26 07:00:43;;;;;;;9.10;8.25;;;;;;;33.65;52.26;100131.64;2876466;79;20944;-95
2022/06/26 07:04:45;;;;;;;10.15;8.53;;;;;;;33.78;51.83;100134.86;2827935;81;21055;-92
2022/06/26 07:08:47;;;;;;;10.58;7.12;;;;;;;33.80;51.55;100136.23;2884569;80;21075;-94
2022/06/26 07:13:00;;;;;;;11.40;8.18;;;;;;;33.80;51.53;100133.47;2866809;80;21109;-93
2022/06/26 07:17:03;;;;;;;7.83;7.00;;;;;;;33.78;51.44;100126.58;2913163;79;28287;-94
2022/06/26 07:21:07;;;;;;;8.38;7.60;;;;;;;33.72;50.83;100121.11;2864942;80;21098;-93
2022/06/26 07:25:09;;;;;;;10.23;8.18;;;;;;;33.95;51.46;100115.98;2864082;80;21060;-93
2022/06/26 07:29:11;;;;;;;7.80;6.03;;;;;;;33.60;51.28;100117.86;2829728;80;21062;-94
2022/06/26 07:41:44;;;;;;;7.50;6.58;;;;;;;33.86;50.89;100109.44;2811830;82;21160;-92
2022/06/26 07:45:46;;;;;;;8.58;4.70;;;;;;;34.16;49.50;100115.84;2811767;83;21067;-93
2022/06/26 07:49:47;;;;;;;5.53;4.70;;;;;;;34.37;48.85;100112.91;2818822;82;21064;-91
2022/06/26 07:53:49;;;;;;;8.08;5.25;;;;;;;34.45;48.45;100110.34;2773485;84;21030;-93
2022/06/26 07:57:51;;;;;;;6.12;5.25;;;;;;;34.61;48.16;100104.70;2772361;84;21082;-89
2022/06/26 08:01:52;;;;;;;5.83;5.22;;;;;;;34.68;48.37;100098.26;2780076;84;21101;-87
2022/06/26 08:05:54;;;;;;;4.83;4.40;;;;;;;34.79;47.01;100100.38;2789027;83;21421;-88
2022/06/26 08:09:56;;;;;;;6.53;4.25;;;;;;;34.80;46.47;100093.73;2821874;82;21072;-87
2022/06/26 08:13:57;;;;;;;7.10;4.35;;;;;;;34.68;46.76;100097.45;2786976;82;21680;-87
2022/06/26 08:18:03;;;;;;;5.50;4.72;;;;;;;34.67;45.50;100092.47;2821857;82;21009;-90
2022/06/26 08:22:05;;;;;;;4.62;3.80;;;;;;;34.82;45.14;100087.35;2769397;82;21067;-91
2022/06/26 08:26:17;;;;;;;4.67;4.25;;;;;;;34.48;45.63;100096.52;2815338;82;21071;-90
2022/06/26 08:30:21;;;;;;;4.62;3.85;;;;;;;34.62;45.34;100094.48;2829008;82;21574;-91
2022/06/26 08:34:25;;;;;;;4.83;3.87;;;;;;;34.47;45.33;100103.96;2718679;85;21150;-91
2022/06/26 08:38:27;;;;;;;6.00;5.05;;;;;;;34.46;45.53;100088.52;2737795;84;21080;-90
2022/06/26 08:42:31;;;;;;;8.85;7.35;;;;;;;34.43;45.07;100088.30;2719703;86;21054;-91
2022/06/26 08:46:44;;;;;;;7.83;7.10;;;;;;;34.40;44.46;100087.50;2700406;84;21586;-90
2022/06/26 08:50:46;;;;;;;4.80;4.35;;;;;;;34.42;44.87;100085.27;2732949;84;21100;-90
2022/06/26 08:54:50;;;;;;;6.25;4.90;;;;;;;34.40;43.75;100088.88;2720577;84;21325;-89
2022/06/26 08:58:54;;;;;;;;;;;;;;;34.37;43.82;100093.03;2742476;83;21300;-91
2022/06/26 09:03:02;;;;;;;6.50;4.83;;;;;;;34.52;44.18;100092.08;2761661;83;20165;-89
2022/06/26 09:07:09;;;;;;;9.53;4.22;;;;;;;34.62;44.58;100087.59;2748049;83;21041;-91
2022/06/26 09:11:16;;;;;;;6.15;5.17;;;;;;;34.77;43.91;100083.82;2764690;84;21056;-91
2022/06/26 09:15:20;;;;;;;6.25;3.98;;;;;;;34.79;42.90;100081.04;2767753;83;21092;-89
2022/06/26 09:19:27;;;;;;;4.28;3.55;;;;;;;34.69;43.38;100070.09;2750385;83;21490;-93
2022/06/26 09:23:29;;;;;;;3.87;3.35;;;;;;;34.54;44.04;100077.42;2769165;83;21069;-94
2022/06/26 09:27:39;;;;;;;4.35;3.75;;;;;;;34.70;43.92;100071.20;2831098;82;21060;-91
2022/06/26 09:31:42;;;;;;;4.92;4.50;;;;;;;34.98;43.67;100076.09;2832932;81;21077;-90
2022/06/26 09:35:44;;;;;;;4.08;3.77;;;;;;;35.05;42.88;100073.84;2780867;82;21077;-87
2022/06/26 09:39:46;;;;;;;4.53;4.12;;;;;;;34.92;42.20;100073.97;2832818;82;21043;-88
2022/06/26 09:43:48;;;;;;;8.93;5.78;;;;;;;34.82;43.19;100073.54;2800055;83;21075;-92
2022/06/26 09:47:51;;;;;;;5.33;4.83;;;;;;;34.58;43.19;100077.09;2846233;81;21080;-85
2022/06/26 09:51:53;;;;;;;4.67;4.27;;;;;;;34.55;43.87;100066.64;2805966;83;21003;-86
2022/06/26 09:55:57;;;;;;;6.90;3.92;;;;;;;34.27;42.65;100070.50;2807408;82;20961;-87
2022/06/26 09:59:58;;;;;;;4.20;3.80;;;;;;;34.08;43.09;100072.33;2824853;82;21078;-87
2022/06/26 10:08:23;;;;;;;8.90;5.12;;;;;;;33.57;43.82;100067.44;2807910;82;21146;-89
2022/06/26 10:12:25;;;;;;;5.45;3.65;;;;;;;33.65;43.46;100068.77;2809251;82;21114;-94
2022/06/26 10:16:35;;;;;;;7.47;4.53;;;;;;;33.83;43.02;100064.52;2813987;82;21460;-93
2022/06/26 10:20:39;;;;;;;6.05;4.30;;;;;;;33.96;43.66;100054.75;2811339;82;21180;-90
2022/06/26 10:25:00;;;;;;;4.87;4.47;;;;;;;33.98;42.38;100056.12;2808047;83;21035;-89
2022/06/26 10:29:09;;;;;;;6.67;4.72;;;;;;;34.04;41.90;100061.88;2796882;83;21028;-89
2022/06/26 10:33:18;;;;;;;4.62;4.20;;;;;;;34.00;41.97;100058.06;2793779;83;21084;-88
2022/06/26 10:37:19;;;;;;;6.70;4.62;;;;;;;33.63;41.44;100056.66;2770934;83;21059;-89
2022/06/26 10:45:43;;;;;;;4.97;4.45;;;;;;;34.03;42.35;100045.06;2687871;85;21621;-89
2022/06/26 10:49:52;;;;;;;12.50;10.85;;;;;;;34.50;42.78;100052.09;2760401;84;21141;-89
2022/06/26 10:53:55;;;;;;;17.32;9.30;;;;;;;34.56;41.71;100046.20;2763739;83;21015;-89
2022/06/26 10:57:57;;;;;;;17.57;6.72;;;;;;;34.60;41.83;100045.90;2758227;84;21021;-89
2022/06/26 11:01:59;;;;;;;3.87;3.42;;;;;;;34.77;41.48;100050.67;2743471;84;21078;-88
2022/06/26 11:06:11;;;;;;;6.20;4.05;;;;;;;35.07;40.67;100039.82;2705933;84;21045;-89
2022/06/26 11:10:20;;;;;;;4.47;4.08;;;;;;;34.83;39.90;100048.94;2763939;83;21046;-89
2022/06/26 11:14:23;;;;;;;5.55;5.00;;;;;;;34.46;40.16;100048.48;2739446;85;21057;-89
2022/06/26 11:18:25;;;;;;;4.78;4.37;;;;;;;33.84;41.12;100054.55;2690364;84;21096;-90
2022/06/26 11:22:28;;;;;;;5.30;3.85;;;;;;;33.75;40.99;100048.83;2730888;85;21107;-90
2022/06/26 11:26:30;;;;;;;7.40;4.58;;;;;;;33.71;40.74;100051.90;2742112;85;21051;-90
2022/06/26 11:30:32;;;;;;;9.68;8.48;;;;;;;33.69;41.58;100055.50;2729132;84;21062;-90
2022/06/26 11:34:40;;;;;;;9.78;8.78;;;;;;;33.92;41.43;100046.79;2700308;86;21012;-90
2022/06/26 11:38:54;;;;;;;5.47;4.80;;;;;;;34.15;41.53;100035.02;2774172;84;21086;-89
2022/06/26 11:42:56;;;;;;;5.45;4.70;;;;;;;34.06;41.75;100042.26;2777313;84;21161;-90
2022/06/26 11:46:58;;;;;;;4.22;3.70;;;;;;;34.17;40.72;100042.98;2773851;84;21007;-89
2022/06/26 11:51:01;;;;;;;4.78;4.37;;;;;;;34.31;39.80;100034.30;2717748;84;21129;-90
2022/06/26 11:55:04;;;;;;;6.92;4.33;;;;;;;34.62;41.59;100035.12;2698522;85;21138;-91
2022/06/26 11:59:06;;;;;;;4.00;3.60;;;;;;;34.73;40.10;100038.00;2734687;85;21236;-91
2022/06/26 12:03:12;;;;;;;4.00;3.70;;;;;;;34.60;39.92;100032.09;2825571;81;21002;-90
2022/06/26 12:11:43;;;;;;;4.78;3.40;;;;;;;34.13;40.80;100035.02;2887689;78;68909;-91
2022/06/26 12:15:45;;;;;;;4.00;3.67;;;;;;;33.99;41.58;100034.31;2894294;80;21069;-90
2022/06/26 12:19:47;;;;;;;4.35;3.95;;;;;;;33.93;42.56;100040.97;2816615;81;21329;-89
2022/06/26 12:23:51;;;;;;;4.37;4.08;;;;;;;34.18;42.20;100032.21;2908668;79;21579;-89
2022/06/26 12:27:53;;;;;;;3.87;3.42;;;;;;;34.43;40.82;100026.18;2867817;80;20964;-88
2022/06/26 12:31:55;;;;;;;3.98;3.65;;;;;;;34.69;40.18;100016.24;2864481;80;21099;-90
2022/06/26 12:35:58;;;;;;;6.70;3.72;;;;;;;34.73;39.37;100020.89;2869075;80;21090;-90
2022/06/26 12:39:59;;;;;;;12.68;5.17;;;;;;;35.01;40.20;100022.48;2883801;81;21060;-92
2022/06/26 12:44:04;;;;;;;5.25;4.75;;;;;;;35.16;39.29;100031.11;2855077;81;21061;-90
2022/06/26 12:48:06;;;;;;;4.67;4.28;;;;;;;34.84;38.73;100029.86;2894364;80;21037;-90
2022/06/26 12:52:08;;;;;;;110.70;22.05;;;;;;;34.73;39.48;100022.81;2881236;81;20997;-90
2022/06/26 12:56:13;;;;;;;5.70;3.90;;;;;;;34.70;39.99;100022.86;2863850;81;21021;-90
2022/06/26 13:04:58;;;;;;;12.70;5.35;;;;;;;34.64;41.31;100018.50;2864581;81;21066;-90
2022/06/26 13:08:59;;;;;;;5.15;3.55;;;;;;;34.83;41.14;100008.05;2806121;81;21032;-90
2022/06/26 13:13:01;;;;;;;4.22;3.83;;;;;;;34.95;40.36;100015.36;2852441;82;21057;-90
2022/06/26 13:17:03;;;;;;;4.03;3.72;;;;;;;35.37;40.45;100025.28;2846177;81;21034;-90
2022/06/26 13:21:05;;;;;;;4.33;3.92;;;;;;;35.54;38.65;100021.20;2879142;80;21656;-88
2022/06/26 13:25:08;;;;;;;5.12;3.15;;;;;;;35.66;39.18;100027.64;2768371;83;21533;-87
2022/06/26 13:29:10;;;;;;;6.22;4.40;;;;;;;35.57;39.08;100032.48;2866784;80;21008;-88
2022/06/26 13:33:12;;;;;;;8.18;3.70;;;;;;;35.39;39.02;100037.44;2853327;81;20992;-89
2022/06/26 13:37:16;;;;;;;3.05;2.85;;;;;;;35.33;39.73;100038.07;2757706;84;21079;-88
2022/06/26 13:41:17;;;;;;;4.30;3.90;;;;;;;34.97;38.81;100042.12;2796653;82;21044;-89
2022/06/26 13:45:18;;;;;;;35.95;9.45;;;;;;;34.93;40.67;100034.72;2855908;80;21724;-88
2022/06/26 13:49:20;;;;;;;6.08;4.22;;;;;;;34.92;40.56;100044.97;2851303;80;21049;-90
2022/06/26 13:53:21;;;;;;;4.10;3.60;;;;;;;34.84;40.67;100044.22;2886762;79;21025;-89
2022/06/26 13:57:23;;;;;;;5.58;4.53;;;;;;;34.66;40.36;100047.21;2871498;82;21661;-88
2022/06/26 14:01:25;;;;;;;5.33;3.75;;;;;;;34.57;40.28;100049.22;2893660;80;21070;-88
2022/06/26 14:05:27;;;;;;;48.75;11.78;;;;;;;34.56;41.25;100051.72;2886536;80;21528;-89
2022/06/26 14:09:29;;;;;;;5.80;4.50;;;;;;;34.41;41.08;100054.06;2858403;81;21039;-91
2022/06/26 14:13:31;;;;;;;5.83;5.05;;;;;;;34.38;42.80;100041.39;2853839;82;21068;-91
2022/06/26 14:17:32;;;;;;;3.90;3.60;;;;;;;34.45;44.00;100049.59;2894929;79;21052;-90
2022/06/26 14:21:34;;;;;;;4.45;4.05;;;;;;;34.42;44.48;100048.81;2876696;80;21065;-91
2022/06/26 14:29:55;;;;;;;6.03;3.80;;;;;;;34.17;45.21;100054.02;2864901;82;21482;-90
2022/06/26 14:33:59;;;;;;;6.87;4.03;;;;;;;34.00;45.43;100052.55;2890903;79;21096;-89
2022/06/26 14:37:59;;;;;;;5.00;4.53;;;;;;;33.84;45.69;100057.88;2875458;80;21029;-90
2022/06/26 14:42:01;;;;;;;6.53;5.10;;;;;;;33.69;46.86;100060.18;2873644;80;20964;-87
2022/06/26 14:46:03;;;;;;;4.35;3.95;;;;;;;33.51;46.64;100055.64;2861211;80;21015;-88
2022/06/26 14:50:06;;;;;;;5.75;4.40;;;;;;;33.39;46.86;100064.20;2864128;80;21500;-89
2022/06/26 14:54:07;;;;;;;5.97;4.55;;;;;;;33.30;46.96;100053.52;2872994;81;21064;-90
2022/06/26 14:58:09;;;;;;;4.60;3.45;;;;;;;33.23;47.07;100061.28;2894089;80;21028;-89
2022/06/26 15:02:12;;;;;;;8.53;4.78;;;;;;;33.12;47.58;100051.69;2904805;80;21579;-90
2022/06/26 15:06:14;;;;;;;4.60;3.27;;;;;;;33.04;47.59;100052.28;2894291;80;21098;-90
2022/06/26 15:10:15;;;;;;;9.58;4.37;;;;;;;32.94;48.15;100049.56;2804565;81;21088;-89
2022/06/26 15:14:17;;;;;;;5.70;4.45;;;;;;;32.88;47.70;100044.59;2860321;80;21065;-89
2022/06/26 15:18:20;;;;;;;10.05;5.10;;;;;;;32.82;48.29;100043.81;2916841;79;20980;-90
2022/06/26 15:22:22;;;;;;;5.40;4.20;;;;;;;32.80;48.42;100050.13;2872264;80;21066;-91
2022/06/26 15:26:24;;;;;;;5.72;5.22;;;;;;;32.70;48.32;100039.97;2842654;80;20977;-90
2022/06/26 15:30:27;;;;;;;33.00;8.00;;;;;;;32.77;48.59;100039.67;2880728;80;21000;-89
2022/06/26 15:34:29;;;;;;;6.12;4.62;;;;;;;32.84;48.64;100041.59;2896294;80;21373;-87
2022/06/26 15:38:30;;;;;;;4.70;4.22;;;;;;;33.01;47.95;100039.05;2854293;80;21021;-91
2022/06/26 15:42:32;;;;;;;7.72;5.10;;;;;;;33.10;47.09;100037.91;2890609;80;22519;-89
2022/06/26 15:46:33;;;;;;;8.25;5.10;;;;;;;33.16;46.93;100034.84;2901865;79;21088;-89
2022/06/26 15:50:35;;;;;;;5.20;4.28;;;;;;;33.38;47.05;100036.38;2860731;81;21011;-90
2022/06/26 15:54:36;;;;;;;13.30;4.95;;;;;;;33.41;46.12;100037.20;2890422;80;21059;-89
2022/06/26 15:58:38;;;;;;;5.65;4.97;;;;;;;33.47;45.98;100037.46;2874948;80;21684;-88
2022/06/26 16:02:41;;;;;;;8.28;5.10;;;;;;;33.54;45.90;100030.80;2837657;81;21078;-89
2022/06/26 16:06:42;;;;;;;6.75;4.80;;;;;;;33.43;46.40;100026.75;2851250;82;21082;-90
2022/06/26 16:10:45;;;;;;;5.87;4.58;;;;;;;33.29;47.08;100026.50;2878224;80;21013;-88
2022/06/26 16:14:46;;;;;;;4.33;3.85;;;;;;;33.23;47.25;100024.09;2878911;82;21043;-88
2022/06/26 16:18:47;;;;;;;7.05;5.10;;;;;;;33.20;47.47;100021.34;2872168;82;21021;-89
2022/06/26 16:27:08;;;;;;;62.15;12.80;;;;;;;33.41;46.35;100012.94;2885883;80;20985;-90
2022/06/26 16:31:10;;;;;;;7.15;4.28;;;;;;;33.36;47.45;100007.47;2881129;79;21040;-91
2022/06/26 16:35:13;;;;;;;5.37;4.75;;;;;;;33.33;47.54;100015.74;2881515;80;21020;-89
2022/06/26 16:39:14;;;;;;;20.80;17.30;;;;;;;33.28;47.34;100015.22;2853736;80;21049;-89
2022/06/26 16:43:16;;;;;;;13.53;12.30;;;;;;;33.24;47.76;100015.52;2849520;80;21069;-89
2022/06/26 16:47:17;;;;;;;27.50;13.30;;;;;;;33.07;48.75;100011.77;2856271;80;21062;-89
2022/06/26 16:51:19;;;;;;;16.57;12.93;;;;;;;32.83;49.47;100017.92;2863885;80;21313;-89
2022/06/26 16:55:21;;;;;;;30.05;22.30;;;;;;;32.73;49.44;100017.95;2882391;80;21024;-88
2022/06/26 16:59:23;;;;;;;33.30;25.88;;;;;;;32.68;50.14;100022.11;2886314;80;21149;-88
2022/06/26 17:03:24;;;;;;;12.10;9.33;;;;;;;32.59;49.83;100018.53;2852007;81;21094;-89
2022/06/26 17:07:26;;;;;;;8.40;7.53;;;;;;;32.58;49.91;100016.08;2876740;80;21123;-89
2022/06/26 17:11:28;;;;;;;22.73;19.42;;;;;;;32.49;50.47;100024.09;2856952;81;21020;-91
2022/06/26 17:15:30;;;;;;;89.52;26.85;;;;;;;32.43;50.61;100018.34;2699409;84;21134;-88
2022/06/26 17:19:31;;;;;;;7.83;6.42;;;;;;;32.38;49.54;100021.08;2846682;80;21563;-89
2022/06/26 17:23:34;;;;;;;4.92;4.37;;;;;;;32.39;49.12;100015.31;2859441;82;21044;-88
2022/06/26 17:27:36;;;;;;;4.67;4.08;;;;;;;32.35;49.55;100025.23;2868656;81;21051;-89
2022/06/26 17:31:37;;;;;;;4.90;4.37;;;;;;;32.28;49.81;100029.61;2866875;82;21552;-89
2022/06/26 17:35:40;;;;;;;4.87;4.35;;;;;;;32.17;50.30;100030.72;2851912;81;21048;-89
2022/06/26 17:39:42;;;;;;;4.37;3.77;;;;;;;32.00;50.26;100034.58;2854198;80;21036;-89
2022/06/26 17:43:43;;;;;;;5.30;4.05;;;;;;;31.88;50.69;100043.67;2862834;80;21087;-87
2022/06/26 17:47:46;;;;;;;11.70;4.78;;;;;;;31.76;50.93;100044.73;2892638;80;21017;-90
2022/06/26 17:51:48;;;;;;;5.58;4.60;;;;;;;31.65;51.54;100040.87;2882504;80;21018;-89
2022/06/26 17:55:50;;;;;;;7.45;5.28;;;;;;;31.41;52.72;100044.94;2891443;80;20982;-89
2022/06/26 17:59:51;;;;;;;5.47;4.92;;;;;;;31.16;53.75;100042.38;2882268;80;21100;-89
2022/06/26 18:03:53;;;;;;;4.97;4.53;;;;;;;30.94;54.29;100046.69;2880468;80;21041;-89
2022/06/26 18:07:55;;;;;;;6.15;5.65;;;;;;;30.74;54.46;100042.75;2854394;81;21005;-88
2022/06/26 18:11:58;;;;;;;8.83;5.65;;;;;;;30.62;54.72;100042.16;2889851;80;21017;-89
2022/06/26 18:16:07;;;;;;;6.75;5.72;;;;;;;30.41;55.54;100041.17;2892797;80;21043;-89
2022/06/26 18:20:05;;;;;;;7.87;5.20;;;;;;;30.16;56.41;100046.77;2860161;80;21033;-88
2022/06/26 18:24:07;;;;;;;5.43;4.60;;;;;;;29.92;57.34;100052.03;2870440;80;21030;-88
2022/06/26 18:28:09;;;;;;;11.65;5.25;;;;;;;29.75;57.75;100049.42;2868898;80;21053;-89
2022/06/26 18:32:10;;;;;;;21.77;9.18;;;;;;;29.62;57.80;100052.05;2877319;80;21027;-89
2022/06/26 18:36:13;;;;;;;5.87;5.22;;;;;;;29.50;58.74;100050.00;2866615;81;21002;-89
2022/06/26 18:40:17;;;;;;;10.80;5.42;;;;;;;29.29;59.33;100059.89;2858293;81;21087;-88
2022/06/26 18:44:18;;;;;;;5.78;5.37;;;;;;;29.04;59.84;100062.06;2877727;80;22329;-88
2022/06/26 18:48:20;;;;;;;6.35;4.87;;;;;;;28.78;60.65;100058.94;2907268;80;21032;-88
2022/06/26 18:52:22;;;;;;;6.08;5.58;;;;;;;28.55;61.21;100060.01;2862520;79;20985;-89
2022/06/26 18:56:23;;;;;;;5.55;5.05;;;;;;;28.40;61.81;100060.63;2906050;80;21022;-89
2022/06/26 19:00:25;;;;;;;7.30;5.90;;;;;;;28.14;62.05;100064.83;2915201;80;21015;-89
2022/06/26 19:04:27;;;;;;;14.05;5.50;;;;;;;27.97;62.82;100071.11;2886122;80;21012;-89
2022/06/26 19:08:29;;;;;;;38.10;11.57;;;;;;;27.76;63.19;100072.64;2817405;80;21135;-89
2022/06/26 19:16:51;;;;;;;10.23;6.85;;;;;;;27.59;63.66;100082.98;2898491;80;21100;-89
2022/06/26 19:20:52;;;;;;;11.03;7.28;;;;;;;27.41;63.78;100066.24;2895715;80;21605;-89
2022/06/26 19:24:55;;;;;;;9.93;6.58;;;;;;;27.40;64.22;100084.22;2881074;80;21072;-90
2022/06/26 19:28:56;;;;;;;12.05;6.15;;;;;;;27.31;64.45;100099.64;2888733;80;21044;-89